sensor_id;sensor_type;location;lat;lon;timestamp;pressure;altitude;pressure_sealevel;temperature;humidity
25238;BME280;13185;50.872;5.306;2023-05-11T00:01:31;101118.13;;;13.15;100.00
25238;BME280;13185;50.872;5.306;2023-05-11T00:03:57;101120.03;;;13.13;100.00
25238;BME280;13185;50.872;5.306;2023-05-11T00:06:22;101120.03;;;13.13;100.00
25238;BME280;13185;50.872;5.306;2023-05-11T00:08:48;101113.81;;;13.12;100.00
25238;BME280;13185;50.872;5.306;2023-05-11T00:11:14;101122.84;;;13.11;100.00
25238;BME280;13185;50.872;5.306;2023-05-11T00:13:39;101111.22;;;13.11;100.00
25238;BME280;13185;50.872;5.306;2023-05-11T00:16:05;101118.44;;;13.10;100.00
25238;BME280;13185;50.872;5.306;2023-05-11T00:18:30;101115.97;;;13.07;100.00
25238;BME280;13185;50.872;5.306;2023-05-11T00:20:56;101111.56;;;13.06;100.00
25238;BME280;13185;50.872;5.306;2023-05-11T00:23:21;101118.91;;;13.04;100.00
25238;BME280;13185;50.872;5.306;2023-05-11T00:25:47;101111.88;;;13.01;100.00
25238;BME280;13185;50.872;5.306;2023-05-11T00:28:13;101112.00;;;13.00;100.00
25238;BME280;13185;50.872;5.306;2023-05-11T00:30:39;101115.75;;;12.97;100.00
25238;BME280;13185;50.872;5.306;2023-05-11T00:33:05;101113.19;;;12.96;100.00
25238;BME280;13185;50.872;5.306;2023-05-11T00:35:31;101107.91;;;12.94;100.00
25238;BME280;13185;50.872;5.306;2023-05-11T00:37:57;101105.34;;;12.93;100.00
25238;BME280;13185;50.872;5.306;2023-05-11T00:40:23;101113.50;;;12.91;100.00
25238;BME280;13185;50.872;5.306;2023-05-11T00:42:49;101101.13;;;12.89;100.00
25238;BME280;13185;50.872;5.306;2023-05-11T00:45:14;101111.88;;;12.89;100.00
25238;BME280;13185;50.872;5.306;2023-05-11T00:47:40;101109.19;;;12.89;100.00
25238;BME280;13185;50.872;5.306;2023-05-11T00:50:06;101110.06;;;12.89;100.00
25238;BME280;13185;50.872;5.306;2023-05-11T00:52:33;101112.75;;;12.89;100.00
25238;BME280;13185;50.872;5.306;2023-05-11T00:54:59;101111.88;;;12.89;100.00
25238;BME280;13185;50.872;5.306;2023-05-11T00:57:25;101118.34;;;12.86;100.00
25238;BME280;13185;50.872;5.306;2023-05-11T00:59:50;101106.72;;;12.86;100.00
25238;BME280;13185;50.872;5.306;2023-05-11T01:02:16;101116.63;;;12.85;100.00
25238;BME280;13185;50.872;5.306;2023-05-11T01:04:42;101119.44;;;12.84;100.00
25238;BME280;13185;50.872;5.306;2023-05-11T01:07:13;101114.06;;;12.84;100.00
25238;BME280;13185;50.872;5.306;2023-05-11T01:10:14;101113.19;;;12.83;100.00
25238;BME280;13185;50.872;5.306;2023-05-11T01:13:16;101114.16;;;12.82;100.00
25238;BME280;13185;50.872;5.306;2023-05-11T01:15:49;101110.50;;;12.83;100.00
25238;BME280;13185;50.872;5.306;2023-05-11T01:18:24;101113.38;;;12.80;100.00
25238;BME280;13185;50.872;5.306;2023-05-11T01:21:01;101110.81;;;12.79;100.00
25238;BME280;13185;50.872;5.306;2023-05-11T01:31:33;101107.78;;;12.70;100.00
25238;BME280;13185;50.872;5.306;2023-05-11T01:34:04;101115.84;;;12.70;100.00
25238;BME280;13185;50.872;5.306;2023-05-11T01:36:32;101109.63;;;12.70;100.00
25238;BME280;13185;50.872;5.306;2023-05-11T01:39:06;101107.91;;;12.69;100.00
25238;BME280;13185;50.872;5.306;2023-05-11T01:41:34;101109.72;;;12.68;100.00
25238;BME280;13185;50.872;5.306;2023-05-11T01:44:04;101110.59;;;12.69;100.00
25238;BME280;13185;50.872;5.306;2023-05-11T01:46:32;101112.41;;;12.68;100.00
25238;BME280;13185;50.872;5.306;2023-05-11T01:49:00;101113.16;;;12.70;100.00
25238;BME280;13185;50.872;5.306;2023-05-11T01:51:33;101111.44;;;12.69;100.00
25238;BME280;13185;50.872;5.306;2023-05-11T01:54:01;101110.69;;;12.67;100.00
25238;BME280;13185;50.872;5.306;2023-05-11T01:56:29;101113.28;;;12.69;100.00
25238;BME280;13185;50.872;5.306;2023-05-11T01:58:56;101114.38;;;12.66;100.00
25238;BME280;13185;50.872;5.306;2023-05-11T02:01:23;101113.72;;;12.63;100.00
25238;BME280;13185;50.872;5.306;2023-05-11T02:03:50;101121.13;;;12.59;100.00
25238;BME280;13185;50.872;5.306;2023-05-11T02:06:18;101118.53;;;12.58;100.00
25238;BME280;13185;50.872;5.306;2023-05-11T02:08:45;101108.00;;;12.55;100.00
25238;BME280;13185;50.872;5.306;2023-05-11T02:11:13;101111.66;;;12.54;100.00
25238;BME280;13185;50.872;5.306;2023-05-11T02:13:41;101116.31;;;12.52;100.00
25238;BME280;13185;50.872;5.306;2023-05-11T02:16:09;101112.81;;;12.50;100.00
25238;BME280;13185;50.872;5.306;2023-05-11T02:18:38;101118.31;;;12.48;100.00
25238;BME280;13185;50.872;5.306;2023-05-11T02:21:04;101110.47;;;12.45;100.00
25238;BME280;13185;50.872;5.306;2023-05-11T02:23:32;101116.94;;;12.42;100.00
25238;BME280;13185;50.872;5.306;2023-05-11T02:25:58;101112.41;;;12.43;100.00
25238;BME280;13185;50.872;5.306;2023-05-11T02:28:24;101112.59;;;12.40;100.00
25238;BME280;13185;50.872;5.306;2023-05-11T02:30:54;101118.09;;;12.38;100.00
25238;BME280;13185;50.872;5.306;2023-05-11T02:33:33;101110.13;;;12.37;100.00
25238;BME280;13185;50.872;5.306;2023-05-11T02:36:00;101111.19;;;12.34;100.00
25238;BME280;13185;50.872;5.306;2023-05-11T02:38:32;101122.81;;;12.35;100.00
25238;BME280;13185;50.872;5.306;2023-05-11T02:41:03;101114.84;;;12.33;100.00
25238;BME280;13185;50.872;5.306;2023-05-11T02:43:34;101110.56;;;12.31;100.00
25238;BME280;13185;50.872;5.306;2023-05-11T02:46:05;101121.31;;;12.31;100.00
25238;BME280;13185;50.872;5.306;2023-05-11T02:48:42;101115.81;;;12.32;100.00
25238;BME280;13185;50.872;5.306;2023-05-11T02:51:11;101120.34;;;12.32;100.00
25238;BME280;13185;50.872;5.306;2023-05-11T02:53:44;101118.50;;;12.32;100.00
25238;BME280;13185;50.872;5.306;2023-05-11T02:56:12;101117.66;;;12.32;100.00
25238;BME280;13185;50.872;5.306;2023-05-11T02:58:37;101114.09;;;12.31;100.00
25238;BME280;13185;50.872;5.306;2023-05-11T03:01:29;101118.63;;;12.31;100.00
25238;BME280;13185;50.872;5.306;2023-05-11T03:03:55;101119.59;;;12.30;100.00
25238;BME280;13185;50.872;5.306;2023-05-11T03:06:24;101119.66;;;12.28;100.00
25238;BME280;13185;50.872;5.306;2023-05-11T03:08:50;101120.63;;;12.27;100.00
25238;BME280;13185;50.872;5.306;2023-05-11T03:11:17;101123.44;;;12.26;100.00
25238;BME280;13185;50.872;5.306;2023-05-11T03:13:45;101124.41;;;12.25;100.00
25238;BME280;13185;50.872;5.306;2023-05-11T03:16:13;101122.69;;;12.24;100.00
25238;BME280;13185;50.872;5.306;2023-05-11T03:18:39;101127.31;;;12.22;100.00
25238;BME280;13185;50.872;5.306;2023-05-11T03:21:05;101123.94;;;12.18;100.00
25238;BME280;13185;50.872;5.306;2023-05-11T03:23:34;101117.72;;;12.18;100.00
25238;BME280;13185;50.872;5.306;2023-05-11T03:26:00;101115.56;;;12.10;100.00
25238;BME280;13185;50.872;5.306;2023-05-11T03:28:28;101121.78;;;12.10;100.00
25238;BME280;13185;50.872;5.306;2023-05-11T03:30:59;101122.75;;;12.09;100.00
25238;BME280;13185;50.872;5.306;2023-05-11T03:33:25;101117.47;;;12.08;100.00
25238;BME280;13185;50.872;5.306;2023-05-11T03:35:52;101116.72;;;12.06;100.00
25238;BME280;13185;50.872;5.306;2023-05-11T03:38:22;101115.84;;;12.05;100.00
25238;BME280;13185;50.872;5.306;2023-05-11T03:40:51;101111.44;;;12.04;100.00
25238;BME280;13185;50.872;5.306;2023-05-11T03:43:19;101117.78;;;12.03;100.00
25238;BME280;13185;50.872;5.306;2023-05-11T03:45:49;101116.47;;;11.96;100.00
25238;BME280;13185;50.872;5.306;2023-05-11T03:48:18;101112.47;;;11.89;100.00
25238;BME280;13185;50.872;5.306;2023-05-11T03:50:45;101109.00;;;11.87;100.00
25238;BME280;13185;50.872;5.306;2023-05-11T03:53:11;101108.25;;;11.85;100.00
25238;BME280;13185;50.872;5.306;2023-05-11T03:55:37;101108.34;;;11.83;100.00
25238;BME280;13185;50.872;5.306;2023-05-11T03:58:09;101106.75;;;11.81;100.00
25238;BME280;13185;50.872;5.306;2023-05-11T04:00:39;101106.84;;;11.79;100.00
25238;BME280;13185;50.872;5.306;2023-05-11T04:03:06;101107.09;;;11.75;100.00
25238;BME280;13185;50.872;5.306;2023-05-11T04:05:32;101106.22;;;11.74;100.00
25238;BME280;13185;50.872;5.306;2023-05-11T04:08:01;101108.28;;;11.71;100.00
25238;BME280;13185;50.872;5.306;2023-05-11T04:10:27;101105.78;;;11.68;100.00
25238;BME280;13185;50.872;5.306;2023-05-11T04:12:52;101105.00;;;11.66;100.00
25238;BME280;13185;50.872;5.306;2023-05-11T04:15:19;101107.03;;;11.62;100.00
25238;BME280;13185;50.872;5.306;2023-05-11T04:17:46;101113.47;;;11.60;100.00
25238;BME280;13185;50.872;5.306;2023-05-11T04:20:12;101110.97;;;11.56;100.00
25238;BME280;13185;50.872;5.306;2023-05-11T04:22:38;101110.31;;;11.53;100.00
25238;BME280;13185;50.872;5.306;2023-05-11T04:25:03;101115.03;;;11.49;100.00
25238;BME280;13185;50.872;5.306;2023-05-11T04:27:32;101115.25;;;11.46;100.00
25238;BME280;13185;50.872;5.306;2023-05-11T04:29:59;101126.00;;;11.46;100.00
25238;BME280;13185;50.872;5.306;2023-05-11T04:32:26;101129.72;;;11.44;100.00
25238;BME280;13185;50.872;5.306;2023-05-11T04:34:53;101126.25;;;11.42;100.00
25238;BME280;13185;50.872;5.306;2023-05-11T04:37:21;101124.34;;;11.44;100.00
25238;BME280;13185;50.872;5.306;2023-05-11T04:39:47;101133.09;;;11.47;100.00
25238;BME280;13185;50.872;5.306;2023-05-11T04:42:13;101131.91;;;11.51;100.00
25238;BME280;13185;50.872;5.306;2023-05-11T04:44:39;101133.34;;;11.57;100.00
25238;BME280;13185;50.872;5.306;2023-05-11T04:47:05;101129.50;;;11.61;100.00
25238;BME280;13185;50.872;5.306;2023-05-11T04:49:31;101131.00;;;11.65;100.00
25238;BME280;13185;50.872;5.306;2023-05-11T04:51:57;101134.28;;;11.70;100.00
25238;BME280;13185;50.872;5.306;2023-05-11T04:54:24;101136.66;;;11.75;100.00
25238;BME280;13185;50.872;5.306;2023-05-11T04:56:49;101132.53;;;11.83;100.00
25238;BME280;13185;50.872;5.306;2023-05-11T04:59:15;101139.88;;;11.94;100.00
25238;BME280;13185;50.872;5.306;2023-05-11T05:01:40;101131.31;;;12.02;100.00
25238;BME280;13185;50.872;5.306;2023-05-11T05:04:06;101132.94;;;12.04;100.00
25238;BME280;13185;50.872;5.306;2023-05-11T05:06:32;101136.50;;;12.05;100.00
25238;BME280;13185;50.872;5.306;2023-05-11T05:08:58;101136.59;;;12.03;100.00
25238;BME280;13185;50.872;5.306;2023-05-11T05:11:24;101134.78;;;12.04;100.00
25238;BME280;13185;50.872;5.306;2023-05-11T05:13:49;101133.81;;;12.05;100.00
25238;BME280;13185;50.872;5.306;2023-05-11T05:16:15;101146.09;;;12.09;100.00
25238;BME280;13185;50.872;5.306;2023-05-11T05:18:41;101144.16;;;12.11;100.00
25238;BME280;13185;50.872;5.306;2023-05-11T05:21:07;101150.41;;;12.11;100.00
25238;BME280;13185;50.872;5.306;2023-05-11T05:23:32;101148.78;;;12.09;100.00
25238;BME280;13185;50.872;5.306;2023-05-11T05:25:58;101161.16;;;12.11;100.00
25238;BME280;13185;50.872;5.306;2023-05-11T05:28:24;101163.63;;;12.14;100.00
25238;BME280;13185;50.872;5.306;2023-05-11T05:30:50;101162.66;;;12.16;100.00
25238;BME280;13185;50.872;5.306;2023-05-11T05:33:15;101168.91;;;12.16;100.00
25238;BME280;13185;50.872;5.306;2023-05-11T05:35:41;101174.38;;;12.14;100.00
25238;BME280;13185;50.872;5.306;2023-05-11T05:38:09;101176.53;;;12.09;100.00
25238;BME280;13185;50.872;5.306;2023-05-11T05:40:35;101180.56;;;12.02;100.00
25238;BME280;13185;50.872;5.306;2023-05-11T05:43:04;101172.50;;;12.02;100.00
25238;BME280;13185;50.872;5.306;2023-05-11T05:45:30;101182.41;;;12.02;100.00
25238;BME280;13185;50.872;5.306;2023-05-11T05:47:56;101181.66;;;12.00;100.00
25238;BME280;13185;50.872;5.306;2023-05-11T05:50:25;101189.03;;;11.96;100.00
25238;BME280;13185;50.872;5.306;2023-05-11T05:52:51;101190.56;;;12.00;100.00
25238;BME280;13185;50.872;5.306;2023-05-11T05:55:18;101186.91;;;12.01;100.00
25238;BME280;13185;50.872;5.306;2023-05-11T05:57:46;101202.19;;;12.01;100.00
25238;BME280;13185;50.872;5.306;2023-05-11T06:00:12;101209.19;;;12.03;100.00
25238;BME280;13185;50.872;5.306;2023-05-11T06:02:38;101203.69;;;12.05;100.00
25238;BME280;13185;50.872;5.306;2023-05-11T06:05:04;101208.88;;;12.08;100.00
25238;BME280;13185;50.872;5.306;2023-05-11T06:07:30;101207.94;;;12.09;100.00
25238;BME280;13185;50.872;5.306;2023-05-11T06:09:56;101215.03;;;12.10;100.00
25238;BME280;13185;50.872;5.306;2023-05-11T06:12:21;101206.97;;;12.10;100.00
25238;BME280;13185;50.872;5.306;2023-05-11T06:14:50;101215.78;;;12.12;100.00
25238;BME280;13185;50.872;5.306;2023-05-11T06:17:17;101219.34;;;12.12;100.00
25238;BME280;13185;50.872;5.306;2023-05-11T06:19:44;101216.53;;;12.14;100.00
25238;BME280;13185;50.872;5.306;2023-05-11T06:22:11;101217.50;;;12.13;100.00
25238;BME280;13185;50.872;5.306;2023-05-11T06:24:36;101213.09;;;12.12;100.00
25238;BME280;13185;50.872;5.306;2023-05-11T06:27:02;101216.75;;;12.11;100.00
25238;BME280;13185;50.872;5.306;2023-05-11T06:29:30;101221.28;;;12.10;100.00
25238;BME280;13185;50.872;5.306;2023-05-11T06:31:56;101223.09;;;12.10;100.00
25238;BME280;13185;50.872;5.306;2023-05-11T06:34:28;101220.41;;;12.10;100.00
25238;BME280;13185;50.872;5.306;2023-05-11T06:36:58;101216.06;;;12.07;100.00
25238;BME280;13185;50.872;5.306;2023-05-11T06:39:25;101226.81;;;12.07;100.00
25238;BME280;13185;50.872;5.306;2023-05-11T06:41:51;101222.22;;;12.09;100.00
25238;BME280;13185;50.872;5.306;2023-05-11T06:44:17;101227.63;;;12.09;100.00
25238;BME280;13185;50.872;5.306;2023-05-11T06:46:44;101227.69;;;12.08;100.00
25238;BME280;13185;50.872;5.306;2023-05-11T06:49:09;101226.81;;;12.07;100.00
25238;BME280;13185;50.872;5.306;2023-05-11T06:51:35;101231.53;;;12.04;100.00
25238;BME280;13185;50.872;5.306;2023-05-11T06:54:00;101241.44;;;12.03;100.00
25238;BME280;13185;50.872;5.306;2023-05-11T06:56:26;101233.28;;;12.05;100.00
25238;BME280;13185;50.872;5.306;2023-05-11T06:58:53;101234.13;;;12.05;100.00
25238;BME280;13185;50.872;5.306;2023-05-11T07:01:18;101236.91;;;12.04;100.00
25238;BME280;13185;50.872;5.306;2023-05-11T07:03:44;101233.28;;;12.05;100.00
25238;BME280;13185;50.872;5.306;2023-05-11T07:06:09;101240.25;;;12.07;100.00
25238;BME280;13185;50.872;5.306;2023-05-11T07:08:35;101235.75;;;12.08;100.00
25238;BME280;13185;50.872;5.306;2023-05-11T07:11:00;101235.56;;;12.11;100.00
25238;BME280;13185;50.872;5.306;2023-05-11T07:13:26;101241.91;;;12.10;100.00
25238;BME280;13185;50.872;5.306;2023-05-11T07:15:51;101241.91;;;12.10;100.00
25238;BME280;13185;50.872;5.306;2023-05-11T07:18:17;101247.19;;;12.11;100.00
25238;BME280;13185;50.872;5.306;2023-05-11T07:20:43;101247.84;;;12.15;100.00
25238;BME280;13185;50.872;5.306;2023-05-11T07:23:11;101240.34;;;12.20;100.00
25238;BME280;13185;50.872;5.306;2023-05-11T07:25:36;101248.41;;;12.20;100.00
25238;BME280;13185;50.872;5.306;2023-05-11T07:28:02;101257.13;;;12.24;100.00
25238;BME280;13185;50.872;5.306;2023-05-11T07:30:27;101244.16;;;12.30;100.00
25238;BME280;13185;50.872;5.306;2023-05-11T07:32:53;101252.03;;;12.33;100.00
25238;BME280;13185;50.872;5.306;2023-05-11T07:35:18;101247.19;;;12.38;100.00
25238;BME280;13185;50.872;5.306;2023-05-11T07:37:44;101244.31;;;12.41;100.00
25238;BME280;13185;50.872;5.306;2023-05-11T07:40:10;101247.28;;;12.37;100.00
25238;BME280;13185;50.872;5.306;2023-05-11T07:42:36;101239.53;;;12.32;100.00
25238;BME280;13185;50.872;5.306;2023-05-11T07:45:01;101251.91;;;12.35;100.00
25238;BME280;13185;50.872;5.306;2023-05-11T07:47:27;101241.91;;;12.37;100.00
25238;BME280;13185;50.872;5.306;2023-05-11T07:49:52;101252.28;;;12.43;100.00
25238;BME280;13185;50.872;5.306;2023-05-11T07:52:18;101248.91;;;12.39;100.00
25238;BME280;13185;50.872;5.306;2023-05-11T07:54:43;101249.97;;;12.37;100.00
25238;BME280;13185;50.872;5.306;2023-05-11T07:57:09;101258.16;;;12.35;100.00
25238;BME280;13185;50.872;5.306;2023-05-11T07:59:38;101257.94;;;12.38;100.00
25238;BME280;13185;50.872;5.306;2023-05-11T08:02:05;101259.88;;;12.36;100.00
25238;BME280;13185;50.872;5.306;2023-05-11T08:04:32;101248.16;;;12.37;100.00
25238;BME280;13185;50.872;5.306;2023-05-11T08:06:57;101256.97;;;12.39;100.00
25238;BME280;13185;50.872;5.306;2023-05-11T08:09:23;101254.38;;;12.38;100.00
25238;BME280;13185;50.872;5.306;2023-05-11T08:11:49;101262.56;;;12.36;100.00
25238;BME280;13185;50.872;5.306;2023-05-11T08:14:14;101248.16;;;12.37;100.00
25238;BME280;13185;50.872;5.306;2023-05-11T08:16:40;101248.91;;;12.39;100.00
25238;BME280;13185;50.872;5.306;2023-05-11T08:19:06;101249.88;;;12.38;100.00
25238;BME280;13185;50.872;5.306;2023-05-11T08:21:31;101259.50;;;12.42;100.00
25238;BME280;13185;50.872;5.306;2023-05-11T08:23:57;101251.06;;;12.34;100.00
25238;BME280;13185;50.872;5.306;2023-05-11T08:26:23;101255.56;;;12.34;100.00
25238;BME280;13185;50.872;5.306;2023-05-11T08:28:48;101254.72;;;12.33;100.00
25238;BME280;13185;50.872;5.306;2023-05-11T08:31:16;101256.44;;;12.34;100.00
25238;BME280;13185;50.872;5.306;2023-05-11T08:33:43;101251.69;;;12.38;100.00
25238;BME280;13185;50.872;5.306;2023-05-11T08:36:09;101253.03;;;12.45;100.00
25238;BME280;13185;50.872;5.306;2023-05-11T08:38:35;101245.97;;;12.57;100.00
25238;BME280;13185;50.872;5.306;2023-05-11T08:41:01;101257.84;;;12.67;100.00
25238;BME280;13185;50.872;5.306;2023-05-11T08:43:28;101257.56;;;12.84;100.00
25238;BME280;13185;50.872;5.306;2023-05-11T08:45:56;101260.75;;;13.04;100.00
25238;BME280;13185;50.872;5.306;2023-05-11T08:48:25;101256.13;;;13.18;100.00
25238;BME280;13185;50.872;5.306;2023-05-11T08:50:51;101266.19;;;13.29;100.00
25238;BME280;13185;50.872;5.306;2023-05-11T08:53:17;101269.09;;;13.39;99.84
25238;BME280;13185;50.872;5.306;2023-05-11T08:55:44;101272.66;;;13.26;97.51
25238;BME280;13185;50.872;5.306;2023-05-11T08:58:11;101263.59;;;13.27;97.63
25238;BME280;13185;50.872;5.306;2023-05-11T09:00:39;101267.25;;;13.26;97.37
25238;BME280;13185;50.872;5.306;2023-05-11T09:03:06;101265.75;;;13.35;97.43
25238;BME280;13185;50.872;5.306;2023-05-11T09:05:32;101266.16;;;13.54;97.09
25238;BME280;13185;50.872;5.306;2023-05-11T09:08:00;101270.03;;;13.63;95.33
25238;BME280;13185;50.872;5.306;2023-05-11T09:10:28;101261.00;;;13.77;94.14
25238;BME280;13185;50.872;5.306;2023-05-11T09:12:54;101269.28;;;13.86;92.96
25238;BME280;13185;50.872;5.306;2023-05-11T09:15:19;101269.06;;;13.90;92.69
25238;BME280;13185;50.872;5.306;2023-05-11T09:17:45;101266.00;;;13.94;92.57
25238;BME280;13185;50.872;5.306;2023-05-11T09:20:11;101271.94;;;13.99;92.14
25238;BME280;13185;50.872;5.306;2023-05-11T09:22:55;101268.50;;;13.97;91.24
25238;BME280;13185;50.872;5.306;2023-05-11T09:25:21;101269.16;;;13.88;90.28
25238;BME280;13185;50.872;5.306;2023-05-11T09:27:48;101273.25;;;13.81;90.72
25238;BME280;13185;50.872;5.306;2023-05-11T09:30:16;101284.28;;;13.78;90.76
25238;BME280;13185;50.872;5.306;2023-05-11T09:32:52;101284.16;;;13.79;91.12
25238;BME280;13185;50.872;5.306;2023-05-11T09:35:26;101281.13;;;13.84;91.03
25238;BME280;13185;50.872;5.306;2023-05-11T09:38:21;101274.56;;;13.88;90.61
25238;BME280;13185;50.872;5.306;2023-05-11T09:40:50;101271.88;;;13.88;90.09
25238;BME280;13185;50.872;5.306;2023-05-11T09:43:21;101277.13;;;13.90;90.74
25238;BME280;13185;50.872;5.306;2023-05-11T09:45:48;101276.06;;;13.92;90.83
25238;BME280;13185;50.872;5.306;2023-05-11T09:50:51;101276.09;;;14.16;88.92
25238;BME280;13185;50.872;5.306;2023-05-11T09:53:41;101273.59;;;14.26;87.87
25238;BME280;13185;50.872;5.306;2023-05-11T09:56:08;101275.97;;;14.30;87.10
25238;BME280;13185;50.872;5.306;2023-05-11T10:01:09;101266.25;;;14.64;87.59
25238;BME280;13185;50.872;5.306;2023-05-11T10:03:47;101278.19;;;14.73;85.75
25238;BME280;13185;50.872;5.306;2023-05-11T10:06:13;101270.31;;;14.70;85.33
25238;BME280;13185;50.872;5.306;2023-05-11T10:08:39;101274.22;;;14.66;85.46
25238;BME280;13185;50.872;5.306;2023-05-11T10:11:06;101267.34;;;14.62;85.95
25238;BME280;13185;50.872;5.306;2023-05-11T10:13:33;101262.09;;;14.71;86.28
25238;BME280;13185;50.872;5.306;2023-05-11T10:16:01;101266.81;;;14.81;86.28
25238;BME280;13185;50.872;5.306;2023-05-11T10:18:30;101265.84;;;14.82;85.52
25238;BME280;13185;50.872;5.306;2023-05-11T10:20:57;101266.81;;;14.81;85.77
25238;BME280;13185;50.872;5.306;2023-05-11T10:23:24;101263.00;;;14.83;85.58
25238;BME280;13185;50.872;5.306;2023-05-11T10:25:51;101273.56;;;14.86;85.19
25238;BME280;13185;50.872;5.306;2023-05-11T10:28:18;101265.38;;;14.99;84.79
25238;BME280;13185;50.872;5.306;2023-05-11T10:30:45;101262.38;;;15.15;84.21
25238;BME280;13185;50.872;5.306;2023-05-11T10:33:12;101267.25;;;15.10;83.60
25238;BME280;13185;50.872;5.306;2023-05-11T10:35:38;101261.38;;;15.16;83.63
25238;BME280;13185;50.872;5.306;2023-05-11T10:38:05;101258.56;;;15.17;83.03
25238;BME280;13185;50.872;5.306;2023-05-11T10:40:35;101256.38;;;15.22;83.53
25238;BME280;13185;50.872;5.306;2023-05-11T10:43:09;101258.94;;;15.13;82.32
25238;BME280;13185;50.872;5.306;2023-05-11T10:53:55;101258.16;;;15.57;81.79
25238;BME280;13185;50.872;5.306;2023-05-11T11:02:11;101244.66;;;16.45;80.63
25238;BME280;13185;50.872;5.306;2023-05-11T11:04:44;101246.13;;;16.49;78.67
25238;BME280;13185;50.872;5.306;2023-05-11T11:07:11;101242.06;;;16.43;78.52
25238;BME280;13185;50.872;5.306;2023-05-11T11:09:53;101244.97;;;16.63;78.98
25238;BME280;13185;50.872;5.306;2023-05-11T11:12:20;101236.47;;;16.79;78.61
25238;BME280;13185;50.872;5.306;2023-05-11T11:14:59;101237.34;;;17.00;77.85
25238;BME280;13185;50.872;5.306;2023-05-11T11:17:26;101239.56;;;17.16;75.91
25238;BME280;13185;50.872;5.306;2023-05-11T11:19:53;101239.97;;;17.11;76.33
25238;BME280;13185;50.872;5.306;2023-05-11T11:22:45;101235.41;;;16.91;74.31
25238;BME280;13185;50.872;5.306;2023-05-11T11:25:11;101231.84;;;16.90;74.67
25238;BME280;13185;50.872;5.306;2023-05-11T11:32:43;101224.34;;;16.83;74.96
25238;BME280;13185;50.872;5.306;2023-05-11T11:38:10;101223.44;;;17.14;76.11
25238;BME280;13185;50.872;5.306;2023-05-11T11:40:41;101227.91;;;17.46;76.87
25238;BME280;13185;50.872;5.306;2023-05-11T11:43:23;101225.66;;;17.72;76.00
25238;BME280;13185;50.872;5.306;2023-05-11T11:46:02;101235.25;;;17.85;75.81
25238;BME280;13185;50.872;5.306;2023-05-11T11:48:32;101219.81;;;17.76;73.48
25238;BME280;13185;50.872;5.306;2023-05-11T11:51:07;101218.00;;;17.66;71.89
25238;BME280;13185;50.872;5.306;2023-05-11T11:59:00;101225.00;;;17.38;72.06
25238;BME280;13185;50.872;5.306;2023-05-11T12:01:34;101220.84;;;17.34;72.02
25238;BME280;13185;50.872;5.306;2023-05-11T12:06:36;101217.00;;;17.36;72.40
25238;BME280;13185;50.872;5.306;2023-05-11T12:09:02;101219.81;;;17.55;73.02
25238;BME280;13185;50.872;5.306;2023-05-11T12:11:29;101216.63;;;17.71;72.55
25238;BME280;13185;50.872;5.306;2023-05-11T12:13:56;101205.94;;;17.79;71.86
25238;BME280;13185;50.872;5.306;2023-05-11T12:16:23;101212.84;;;17.83;70.73
25238;BME280;13185;50.872;5.306;2023-05-11T12:18:58;101210.41;;;17.90;69.92
25238;BME280;13185;50.872;5.306;2023-05-11T12:21:28;101207.47;;;18.12;71.10
25238;BME280;13185;50.872;5.306;2023-05-11T12:23:59;101205.34;;;18.16;68.56
25238;BME280;13185;50.872;5.306;2023-05-11T12:26:26;101208.31;;;18.13;68.55
25238;BME280;13185;50.872;5.306;2023-05-11T12:29:12;101188.22;;;18.25;70.35
25238;BME280;13185;50.872;5.306;2023-05-11T12:31:40;101191.81;;;18.45;70.13
25238;BME280;13185;50.872;5.306;2023-05-11T12:34:06;101201.56;;;18.67;70.05
25238;BME280;13185;50.872;5.306;2023-05-11T12:36:38;101194.13;;;18.69;68.13
25238;BME280;13185;50.872;5.306;2023-05-11T12:39:03;101197.09;;;18.75;68.33
25238;BME280;13185;50.872;5.306;2023-05-11T12:41:29;101190.38;;;18.99;65.96
25238;BME280;13185;50.872;5.306;2023-05-11T12:43:54;101188.66;;;18.98;64.50
25238;BME280;13185;50.872;5.306;2023-05-11T12:46:20;101189.38;;;18.90;66.30
25238;BME280;13185;50.872;5.306;2023-05-11T12:48:47;101188.03;;;19.23;67.09
25238;BME280;13185;50.872;5.306;2023-05-11T12:54:29;101184.75;;;19.67;64.22
25238;BME280;13185;50.872;5.306;2023-05-11T12:56:55;101179.25;;;19.76;64.62
25238;BME280;13185;50.872;5.306;2023-05-11T13:02:06;101171.38;;;20.01;63.20
25238;BME280;13185;50.872;5.306;2023-05-11T13:04:32;101164.19;;;20.27;63.94
25238;BME280;13185;50.872;5.306;2023-05-11T13:06:57;101161.59;;;20.53;63.89
25238;BME280;13185;50.872;5.306;2023-05-11T13:09:24;101158.53;;;20.74;64.06
25238;BME280;13185;50.872;5.306;2023-05-11T13:12:06;101152.00;;;20.67;59.54
25238;BME280;13185;50.872;5.306;2023-05-11T13:14:31;101155.53;;;20.32;60.45
25238;BME280;13185;50.872;5.306;2023-05-11T13:16:57;101155.53;;;20.32;61.69
25238;BME280;13185;50.872;5.306;2023-05-11T13:19:27;101153.50;;;20.43;61.15
25238;BME280;13185;50.872;5.306;2023-05-11T13:21:54;101149.66;;;20.54;61.52
25238;BME280;13185;50.872;5.306;2023-05-11T13:24:21;101149.44;;;20.65;61.42
25238;BME280;13185;50.872;5.306;2023-05-11T13:26:47;101151.50;;;20.71;62.70
25238;BME280;13185;50.872;5.306;2023-05-11T13:29:13;101150.22;;;20.84;62.26
25238;BME280;13185;50.872;5.306;2023-05-11T13:31:46;101146.28;;;20.78;62.16
25238;BME280;13185;50.872;5.306;2023-05-11T13:34:12;101145.75;;;20.74;60.75
25238;BME280;13185;50.872;5.306;2023-05-11T13:36:38;101146.13;;;20.80;62.14